createdAt,value
2019-01-26T00:02:28.263Z,30.87
2019-01-26T00:04:59.713Z,23.70
2019-01-26T00:07:31.275Z,17.67
2019-01-26T00:10:02.974Z,34.63
2019-01-26T00:12:34.902Z,27.83
2019-01-26T00:15:07.932Z,23.50
2019-01-26T00:17:38.943Z,33.73
2019-01-26T00:20:10.693Z,47.13
2019-01-26T00:22:41.677Z,33.20
2019-01-26T00:25:13.273Z,29.83
2019-01-26T00:27:44.519Z,14.57
2019-01-26T00:30:16.513Z,22.27
2019-01-26T00:32:47.962Z,35.27
2019-01-26T00:35:19.597Z,22.93
2019-01-26T00:37:51.162Z,21.60
2019-01-26T00:40:22.257Z,35.77
2019-01-26T00:42:53.358Z,22.30
2019-01-26T00:45:25.018Z,17.70
2019-01-26T00:47:56.677Z,21.53
2019-01-26T00:50:27.763Z,28.43
2019-01-26T00:52:59.917Z,21.17
2019-01-26T00:55:31.242Z,35.40
2019-01-26T00:58:02.972Z,29.53
2019-01-26T01:00:35.512Z,20.10
2019-01-26T01:03:07.112Z,21.00
2019-01-26T01:05:38.372Z,26.63
2019-01-26T01:08:09.837Z,24.67
2019-01-26T01:10:41.007Z,28.60
2019-01-26T01:13:11.987Z,10.80
2019-01-26T01:15:43.145Z,27.37
2019-01-26T01:18:14.583Z,13.40
2019-01-26T01:20:45.818Z,36.47
2019-01-26T01:23:17.371Z,17.20
2019-01-26T01:25:48.492Z,38.60
2019-01-26T01:28:19.922Z,20.00
2019-01-26T01:30:51.652Z,35.10
2019-01-26T01:33:23.462Z,14.47
2019-01-26T01:35:54.562Z,13.53
2019-01-26T01:38:26.072Z,12.97
2019-01-26T01:40:57.452Z,11.30
2019-01-26T01:43:28.952Z,19.53
2019-01-26T01:46:00.082Z,24.77
2019-01-26T01:48:31.052Z,19.30
2019-01-26T01:51:02.490Z,24.63
2019-01-26T01:53:33.491Z,17.17
2019-01-26T01:56:04.701Z,20.73
2019-01-26T01:58:35.631Z,13.47
2019-01-26T02:01:07.674Z,22.37
2019-01-26T02:03:39.141Z,22.73
2019-01-26T02:06:10.632Z,7.83
2019-01-26T02:08:41.533Z,13.33
2019-01-26T02:11:12.842Z,26.07
2019-01-26T02:13:44.317Z,18.27
2019-01-26T02:16:16.412Z,16.80
2019-01-26T02:18:48.037Z,15.10
2019-01-26T02:21:19.672Z,10.87
2019-01-26T02:23:50.932Z,19.00
2019-01-26T02:26:22.066Z,20.53
2019-01-26T02:28:53.051Z,12.17
2019-01-26T02:31:24.323Z,16.43
2019-01-26T02:33:55.813Z,27.63
2019-01-26T02:36:27.382Z,20.57
2019-01-26T02:38:58.393Z,13.43
2019-01-26T02:41:29.993Z,23.67
2019-01-26T02:44:01.672Z,17.33
2019-01-26T02:46:33.156Z,25.80
2019-01-26T02:49:04.604Z,34.27
2019-01-26T02:51:35.743Z,40.40
2019-01-26T02:54:07.427Z,30.97
2019-01-26T02:56:39.334Z,30.17
2019-01-26T02:59:10.873Z,46.97
2019-01-26T03:01:42.791Z,28.87
2019-01-26T03:04:14.243Z,32.63
2019-01-26T03:06:45.307Z,27.17
2019-01-26T03:09:16.308Z,26.67
2019-01-26T03:11:48.643Z,28.20
2019-01-26T03:14:20.192Z,19.93
2019-01-26T03:16:51.453Z,25.00
2019-01-26T03:19:23.063Z,16.27
2019-01-26T03:21:54.538Z,24.47
2019-01-26T03:24:25.962Z,21.77
2019-01-26T03:26:57.713Z,14.30
2019-01-26T03:29:29.204Z,32.13
2019-01-26T03:32:00.519Z,35.50
2019-01-26T03:34:31.632Z,27.43
2019-01-26T03:37:03.299Z,27.63
2019-01-26T03:39:35.480Z,16.10
2019-01-26T03:42:07.003Z,25.90
2019-01-26T03:44:39.048Z,43.50
2019-01-26T03:47:13.703Z,27.33
2019-01-26T03:49:42.737Z,25.30
2019-01-26T03:52:14.278Z,15.33
2019-01-26T03:54:45.713Z,29.90
2019-01-26T03:57:17.154Z,17.63
2019-01-26T03:59:48.609Z,16.33
2019-01-26T04:02:20.174Z,22.90
2019-01-26T04:04:53.198Z,20.90
2019-01-26T04:07:25.244Z,21.97
2019-01-26T04:09:56.943Z,22.77
2019-01-26T04:12:28.363Z,14.30
2019-01-26T04:14:59.983Z,27.30
2019-01-26T04:17:31.323Z,34.50
2019-01-26T04:20:02.404Z,30.00
2019-01-26T04:22:33.748Z,29.33
2019-01-26T04:25:05.208Z,22.70
2019-01-26T04:27:36.473Z,34.50
2019-01-26T04:30:08.639Z,18.93
2019-01-26T04:32:40.283Z,16.17
2019-01-26T04:35:12.513Z,20.27
2019-01-26T04:37:44.026Z,26.23
2019-01-26T04:40:17.100Z,22.93
2019-01-26T04:42:48.338Z,26.90
2019-01-26T04:45:20.899Z,23.57
2019-01-26T04:47:52.604Z,19.63
2019-01-26T04:50:24.246Z,29.17
2019-01-26T04:52:55.764Z,19.70
2019-01-26T04:55:27.013Z,20.67
2019-01-26T04:57:58.105Z,19.67
2019-01-26T05:00:29.570Z,16.60
2019-01-26T05:03:00.805Z,19.60
2019-01-26T05:05:32.151Z,18.97
2019-01-26T05:08:03.209Z,34.03
2019-01-26T05:10:34.508Z,39.00
2019-01-26T05:13:06.325Z,28.00
2019-01-26T05:15:37.298Z,21.57
2019-01-26T05:18:09.428Z,34.30
2019-01-26T05:20:40.958Z,42.30
2019-01-26T05:23:12.726Z,31.80
2019-01-26T05:25:43.986Z,20.80
2019-01-26T05:28:15.154Z,35.87
2019-01-26T05:30:48.659Z,34.70
2019-01-26T05:33:20.388Z,23.83
2019-01-26T05:35:51.718Z,35.47
2019-01-26T05:38:23.055Z,47.13
2019-01-26T05:40:54.328Z,54.00
2019-01-26T05:43:25.254Z,57.87
2019-01-26T05:45:57.730Z,58.73
2019-01-26T05:48:28.754Z,43.00
2019-01-26T05:50:59.554Z,58.27
2019-01-26T05:53:30.931Z,50.63
2019-01-26T05:56:02.203Z,55.97
2019-01-26T05:58:33.199Z,51.07
2019-01-26T06:01:04.358Z,47.10
2019-01-26T06:03:36.154Z,44.27
2019-01-26T06:06:07.555Z,38.67
2019-01-26T06:08:39.874Z,23.33
2019-01-26T06:11:10.698Z,51.80
2019-01-26T06:13:42.214Z,33.40
2019-01-26T06:16:13.240Z,40.57
2019-01-26T06:18:44.549Z,41.97
2019-01-26T06:21:15.734Z,33.13
2019-01-26T06:23:47.794Z,30.30
2019-01-26T06:26:18.589Z,22.87
2019-01-26T06:28:50.130Z,23.70
2019-01-26T06:31:21.479Z,24.00
2019-01-26T06:33:52.899Z,37.17
2019-01-26T06:36:23.664Z,12.47
2019-01-26T06:38:54.998Z,26.07
2019-01-26T06:41:26.504Z,41.90
2019-01-26T06:43:57.595Z,26.43
2019-01-26T06:46:29.284Z,37.97
2019-01-26T06:49:01.817Z,34.47
2019-01-26T06:51:32.849Z,33.40
2019-01-26T06:54:04.633Z,39.80
2019-01-26T06:56:35.685Z,36.70
2019-01-26T06:59:11.318Z,22.93
2019-01-26T07:01:42.403Z,31.23
2019-01-26T07:04:16.568Z,45.20
2019-01-26T07:07:06.504Z,43.87
2019-01-26T07:09:38.224Z,38.80
2019-01-26T07:12:10.014Z,41.70
2019-01-26T07:14:41.834Z,32.17
2019-01-26T07:17:13.593Z,29.47
2019-01-26T07:19:45.330Z,41.70
2019-01-26T07:22:17.038Z,38.07
2019-01-26T07:24:48.889Z,26.70
2019-01-26T07:27:20.639Z,23.93
2019-01-26T07:29:52.378Z,25.20
2019-01-26T07:32:24.023Z,20.60
2019-01-26T07:34:56.753Z,33.13
2019-01-26T07:37:29.098Z,31.27
2019-01-26T07:40:00.453Z,28.10
2019-01-26T07:42:31.558Z,19.70
2019-01-26T07:45:03.238Z,36.13
2019-01-26T07:47:35.478Z,32.30
2019-01-26T07:50:30.579Z,11.43
2019-01-26T07:53:01.734Z,20.50
2019-01-26T07:55:32.973Z,20.73
2019-01-26T07:58:04.624Z,28.83
2019-01-26T08:00:36.544Z,25.73
2019-01-26T08:03:07.950Z,24.90
2019-01-26T08:05:40.803Z,22.90
2019-01-26T08:08:12.989Z,27.00
2019-01-26T08:10:47.663Z,17.53
2019-01-26T08:13:19.178Z,12.03
2019-01-26T08:15:50.693Z,18.73
2019-01-26T08:18:24.260Z,23.37
2019-01-26T08:20:55.529Z,31.13
2019-01-26T08:23:26.719Z,26.50
2019-01-26T08:25:58.413Z,24.67
2019-01-26T08:28:31.088Z,32.33
2019-01-26T08:31:02.446Z,14.10
2019-01-26T08:33:34.071Z,26.50
2019-01-26T08:36:06.118Z,19.37
2019-01-26T08:38:38.538Z,24.30
2019-01-26T08:41:10.214Z,14.70
2019-01-26T08:43:42.018Z,14.30
2019-01-26T08:46:16.033Z,17.67
2019-01-26T08:48:47.684Z,21.50
2019-01-26T08:51:18.720Z,15.60
2019-01-26T08:53:50.073Z,10.77
2019-01-26T08:56:21.301Z,13.53
2019-01-26T08:58:52.493Z,16.23
2019-01-26T09:01:24.238Z,22.30
2019-01-26T09:04:21.103Z,20.60
2019-01-26T09:06:56.073Z,21.13
2019-01-26T09:09:28.578Z,28.33
2019-01-26T09:11:59.943Z,16.00
2019-01-26T09:14:31.084Z,11.80
2019-01-26T09:17:02.614Z,21.80
2019-01-26T09:19:33.813Z,12.97
2019-01-26T09:22:07.498Z,16.47
2019-01-26T09:24:38.765Z,10.50
2019-01-26T09:27:10.133Z,19.07
2019-01-26T09:29:42.585Z,17.47
2019-01-26T09:32:14.524Z,17.30
2019-01-26T09:34:46.118Z,24.17
2019-01-26T09:37:17.903Z,13.47
2019-01-26T09:39:49.693Z,12.17
2019-01-26T09:42:22.163Z,8.73
2019-01-26T09:44:53.903Z,14.33
2019-01-26T09:50:02.333Z,18.30
2019-01-26T09:52:33.618Z,12.87
2019-01-26T09:55:05.678Z,23.43
2019-01-26T09:57:38.123Z,9.33
2019-01-26T10:00:11.189Z,26.30
2019-01-26T10:02:42.769Z,18.83
2019-01-26T10:05:13.633Z,13.37
2019-01-26T10:07:45.440Z,15.03
2019-01-26T10:10:16.843Z,15.50
2019-01-26T10:12:48.129Z,21.33
2019-01-26T10:15:19.884Z,18.63
2019-01-26T10:17:51.753Z,23.23
2019-01-26T10:20:24.699Z,18.30
2019-01-26T10:22:56.073Z,30.10
2019-01-26T10:25:27.313Z,20.13
2019-01-26T10:27:59.113Z,18.90
2019-01-26T10:30:34.963Z,23.83
2019-01-26T10:33:06.303Z,23.97
2019-01-26T10:35:54.214Z,20.60
2019-01-26T10:38:25.473Z,12.70
2019-01-26T10:41:20.053Z,20.73
2019-01-26T10:43:52.923Z,20.37
2019-01-26T10:46:24.248Z,26.43
2019-01-26T10:49:00.582Z,19.03
2019-01-26T10:51:28.763Z,18.47
2019-01-26T10:53:59.858Z,32.13
2019-01-26T10:56:31.153Z,9.30
2019-01-26T10:59:03.139Z,17.67
2019-01-26T11:01:35.220Z,28.20
2019-01-26T11:04:06.219Z,18.07
2019-01-26T11:06:37.518Z,26.37
2019-01-26T11:09:10.120Z,20.30
2019-01-26T11:11:41.468Z,21.47
2019-01-26T11:14:12.688Z,17.40
2019-01-26T11:16:44.389Z,15.40
2019-01-26T11:19:16.029Z,35.87
2019-01-26T11:21:47.728Z,17.07
2019-01-26T11:24:19.078Z,15.30
2019-01-26T11:26:53.669Z,11.20
2019-01-26T11:29:24.838Z,13.93
2019-01-26T11:31:56.679Z,22.37
2019-01-26T11:34:27.788Z,20.73
2019-01-26T11:37:00.219Z,13.70
2019-01-26T11:39:31.623Z,19.43
2019-01-26T11:42:02.699Z,18.93
2019-01-26T11:44:34.448Z,11.43
2019-01-26T11:47:12.904Z,11.57
2019-01-26T11:49:53.013Z,11.83
2019-01-26T11:52:24.148Z,16.43
2019-01-26T11:55:14.523Z,16.57
2019-01-26T11:57:46.440Z,9.63
2019-01-26T12:00:46.940Z,12.03
2019-01-26T12:03:44.110Z,10.67
2019-01-26T12:06:40.844Z,18.57
2019-01-26T12:09:14.014Z,16.87
2019-01-26T12:11:47.343Z,19.07
2019-01-26T12:14:20.023Z,12.30
2019-01-26T12:16:51.844Z,17.57
2019-01-26T12:19:24.563Z,21.07
2019-01-26T12:21:56.273Z,15.80
2019-01-26T12:24:27.904Z,14.50
2019-01-26T12:26:59.839Z,15.63
2019-01-26T12:29:31.169Z,11.30
2019-01-26T12:32:02.566Z,11.80
2019-01-26T12:34:33.683Z,24.27
2019-01-26T12:37:05.895Z,11.07
2019-01-26T12:39:37.119Z,6.17
2019-01-26T12:42:09.844Z,21.03
2019-01-26T12:44:41.134Z,20.33
2019-01-26T12:47:16.923Z,17.43
2019-01-26T12:49:45.654Z,11.17
2019-01-26T12:52:17.104Z,22.00
2019-01-26T12:54:48.966Z,14.43
2019-01-26T12:57:21.867Z,13.60
2019-01-26T12:59:53.679Z,23.80
2019-01-26T13:02:24.899Z,16.30
2019-01-26T13:04:55.939Z,25.93
2019-01-26T13:07:27.269Z,8.20
2019-01-26T13:09:59.025Z,16.67
2019-01-26T13:12:30.468Z,11.23
2019-01-26T13:15:02.068Z,22.07
2019-01-26T13:17:33.971Z,20.20
2019-01-26T13:20:05.919Z,8.67
2019-01-26T13:22:37.029Z,17.63
2019-01-26T13:25:09.409Z,10.73
2019-01-26T13:27:41.260Z,8.13
2019-01-26T13:30:14.919Z,21.13
2019-01-26T13:32:46.704Z,21.40
2019-01-26T13:35:22.339Z,15.03
2019-01-26T13:37:53.704Z,34.83
2019-01-26T13:40:24.894Z,17.20
2019-01-26T13:42:58.839Z,13.43
2019-01-26T13:45:30.794Z,11.57
2019-01-26T13:48:02.130Z,13.30
2019-01-26T13:50:34.034Z,14.20
2019-01-26T13:53:06.140Z,23.20
2019-01-26T13:55:37.539Z,12.20
2019-01-26T13:58:10.271Z,8.90
2019-01-26T14:00:41.971Z,10.30
2019-01-26T14:03:13.308Z,12.50
2019-01-26T14:05:46.018Z,18.60
2019-01-26T14:08:17.482Z,18.43
2019-01-26T14:10:48.759Z,33.50
2019-01-26T14:13:20.659Z,18.07
2019-01-26T14:15:52.150Z,22.73
2019-01-26T14:18:24.174Z,16.23
2019-01-26T14:20:55.664Z,12.00
2019-01-26T14:23:27.749Z,13.90
2019-01-26T14:25:59.749Z,13.20
2019-01-26T14:28:30.922Z,9.77
2019-01-26T14:31:03.441Z,16.97
2019-01-26T14:33:34.599Z,9.33
2019-01-26T14:36:06.324Z,10.93
2019-01-26T14:38:40.109Z,11.27
2019-01-26T14:41:11.261Z,20.20
2019-01-26T14:43:43.243Z,12.03
2019-01-26T14:46:14.779Z,19.20
2019-01-26T14:48:46.384Z,10.87
2019-01-26T14:51:18.327Z,7.90
2019-01-26T14:53:50.336Z,13.13
2019-01-26T14:56:21.740Z,22.73
2019-01-26T14:58:53.208Z,13.33
2019-01-26T15:01:24.404Z,19.10
2019-01-26T15:03:56.234Z,12.40
2019-01-26T15:06:28.003Z,15.70
2019-01-26T15:08:59.324Z,34.03
2019-01-26T15:11:31.749Z,16.70
2019-01-26T15:14:03.889Z,21.77
2019-01-26T15:16:35.064Z,22.93
2019-01-26T15:19:06.430Z,14.17
2019-01-26T15:21:37.649Z,12.03
2019-01-26T15:24:09.989Z,22.03
2019-01-26T15:26:41.189Z,14.47
2019-01-26T15:29:12.499Z,32.63
2019-01-26T15:31:43.609Z,29.23
2019-01-26T15:34:14.888Z,72.87
2019-01-26T15:36:46.384Z,62.20
2019-01-26T15:39:17.774Z,45.97
2019-01-26T15:41:49.449Z,197.40
2019-01-26T15:44:21.348Z,219.33
2019-01-26T15:46:53.142Z,43.50
2019-01-26T15:49:24.439Z,32.60
2019-01-26T15:51:55.598Z,30.00
2019-01-26T15:54:29.779Z,47.73
2019-01-26T15:57:00.949Z,45.60
2019-01-26T15:59:32.319Z,43.37
2019-01-26T16:02:03.395Z,40.50
2019-01-26T16:04:35.259Z,54.57
2019-01-26T16:07:06.728Z,45.10
2019-01-26T16:09:38.049Z,97.10
2019-01-26T16:12:09.709Z,57.33
2019-01-26T16:14:44.514Z,15.20
2019-01-26T16:17:15.963Z,14.67
2019-01-26T16:19:47.311Z,18.90
2019-01-26T16:25:47.868Z,28.57
2019-01-26T16:28:18.799Z,28.40
2019-01-26T16:30:50.519Z,56.13
2019-01-26T16:33:21.650Z,24.37
2019-01-26T16:35:53.499Z,94.77
2019-01-26T16:38:24.374Z,112.10
2019-01-26T16:40:56.469Z,49.50
2019-01-26T16:43:28.008Z,56.50
2019-01-26T16:45:59.678Z,44.13
2019-01-26T16:48:31.169Z,35.33
2019-01-26T16:51:02.920Z,52.10
2019-01-26T16:53:34.783Z,59.17
2019-01-26T16:56:06.263Z,49.50
2019-01-26T16:58:37.203Z,49.50
2019-01-26T17:01:08.359Z,31.83
2019-01-26T17:03:39.678Z,39.20
2019-01-26T17:06:11.124Z,35.03
2019-01-26T17:08:42.803Z,37.93
2019-01-26T17:11:17.463Z,34.27
2019-01-26T17:13:48.578Z,39.77
2019-01-26T17:16:20.433Z,36.40
2019-01-26T17:18:51.524Z,34.40
2019-01-26T17:21:22.829Z,47.87
2019-01-26T17:23:53.999Z,22.43
2019-01-26T17:26:25.348Z,37.97
2019-01-26T17:28:56.234Z,24.00
2019-01-26T17:31:27.473Z,21.20
2019-01-26T17:33:58.754Z,35.77
2019-01-26T17:36:30.603Z,24.20
2019-01-26T17:39:02.193Z,19.33
2019-01-26T17:41:34.833Z,32.43
2019-01-26T17:44:06.094Z,30.30
2019-01-26T17:46:37.593Z,40.00
2019-01-26T17:49:10.038Z,35.97
2019-01-26T17:51:43.807Z,28.27
2019-01-26T17:54:15.028Z,39.33
2019-01-26T17:56:46.550Z,32.53
2019-01-26T17:59:18.103Z,32.40
2019-01-26T18:01:49.224Z,32.13
2019-01-26T18:04:20.258Z,23.37
2019-01-26T18:06:51.484Z,31.13
2019-01-26T18:09:23.198Z,33.93
2019-01-26T18:11:54.823Z,29.60
2019-01-26T18:14:26.483Z,33.37
2019-01-26T18:16:57.983Z,24.97
2019-01-26T18:19:29.498Z,35.80
2019-01-26T18:22:01.044Z,30.80
2019-01-26T18:24:33.424Z,37.57
2019-01-26T18:27:04.853Z,32.30
2019-01-26T18:29:36.289Z,25.13
2019-01-26T18:32:08.704Z,24.40
2019-01-26T18:34:39.703Z,19.47
2019-01-26T18:37:11.399Z,19.33
2019-01-26T18:39:42.364Z,27.27
2019-01-26T18:42:13.973Z,26.93
2019-01-26T18:44:45.018Z,29.73
2019-01-26T18:47:16.713Z,36.47
2019-01-26T18:49:48.458Z,21.43
2019-01-26T18:52:20.076Z,42.50
2019-01-26T18:54:51.098Z,34.97
2019-01-26T18:57:22.313Z,24.13
2019-01-26T18:59:53.493Z,18.27
2019-01-26T19:02:25.144Z,18.93
2019-01-26T19:04:59.444Z,23.07
2019-01-26T19:07:30.823Z,14.37
2019-01-26T19:10:01.935Z,27.73
2019-01-26T19:12:33.239Z,28.20
2019-01-26T19:15:04.633Z,23.67
2019-01-26T19:17:36.249Z,32.03
2019-01-26T19:20:07.373Z,43.60
2019-01-26T19:22:38.418Z,95.97
2019-01-26T19:25:11.529Z,60.97
2019-01-26T19:27:43.199Z,46.17
2019-01-26T19:30:17.128Z,36.57
2019-01-26T19:32:49.940Z,21.60
2019-01-26T19:35:21.009Z,20.63
2019-01-26T19:37:52.578Z,15.63
2019-01-26T19:40:23.793Z,27.03
2019-01-26T19:42:55.549Z,28.73
2019-01-26T19:45:27.224Z,21.60
2019-01-26T19:47:59.078Z,21.27
2019-01-26T19:50:30.134Z,15.57
2019-01-26T19:53:01.886Z,25.90
2019-01-26T19:55:33.153Z,23.70
2019-01-26T19:58:05.059Z,26.47
2019-01-26T20:00:37.849Z,28.03
2019-01-26T20:03:09.143Z,15.37
2019-01-26T20:05:40.308Z,15.77
2019-01-26T20:08:11.588Z,12.33
2019-01-26T20:10:43.258Z,19.03
2019-01-26T20:13:15.403Z,21.67
2019-01-26T20:15:47.053Z,17.43
2019-01-26T20:18:18.638Z,27.13
2019-01-26T20:20:49.638Z,33.03
2019-01-26T20:23:21.338Z,26.37
2019-01-26T20:25:54.609Z,30.00
2019-01-26T20:28:26.208Z,32.47
2019-01-26T20:30:57.626Z,28.60
2019-01-26T20:33:28.878Z,36.27
2019-01-26T20:36:00.094Z,18.90
2019-01-26T20:38:31.892Z,19.63
2019-01-26T20:41:03.479Z,33.50
2019-01-26T20:43:34.883Z,34.07
2019-01-26T20:46:06.068Z,14.60
2019-01-26T20:48:37.703Z,39.40
2019-01-26T20:51:08.899Z,19.67
2019-01-26T20:53:40.110Z,28.40
2019-01-26T20:56:11.925Z,40.67
2019-01-26T20:58:43.163Z,23.87
2019-01-26T21:01:14.639Z,31.50
2019-01-26T21:03:46.614Z,44.17
2019-01-26T21:06:17.708Z,35.33
2019-01-26T21:08:48.953Z,19.43
2019-01-26T21:11:21.758Z,22.53
2019-01-26T21:13:53.421Z,26.60
2019-01-26T21:16:25.009Z,25.50
2019-01-26T21:18:56.759Z,37.03
2019-01-26T21:21:31.980Z,46.00
2019-01-26T21:24:02.243Z,46.17
2019-01-26T21:26:33.634Z,50.00
2019-01-26T21:29:05.879Z,36.63
2019-01-26T21:31:37.618Z,64.90
2019-01-26T21:34:08.999Z,64.50
2019-01-26T21:36:40.574Z,64.47
2019-01-26T21:39:12.314Z,60.17
2019-01-26T21:41:43.309Z,57.17
2019-01-26T21:44:15.029Z,71.83
2019-01-26T21:46:45.990Z,41.90
2019-01-26T21:49:17.708Z,44.67
2019-01-26T21:51:48.809Z,71.67
2019-01-26T21:54:20.223Z,61.07
2019-01-26T21:56:51.715Z,90.20
2019-01-26T21:59:22.729Z,50.40
2019-01-26T22:01:54.399Z,37.20
2019-01-26T22:04:25.716Z,38.37
2019-01-26T22:06:57.203Z,36.17
2019-01-26T22:09:28.649Z,40.20
2019-01-26T22:11:59.929Z,25.80
2019-01-26T22:14:32.034Z,38.13
2019-01-26T22:17:03.556Z,43.83
2019-01-26T22:19:35.446Z,34.90
2019-01-26T22:22:08.099Z,25.20
2019-01-26T22:24:39.268Z,23.50
2019-01-26T22:27:11.079Z,23.17
2019-01-26T22:29:42.639Z,20.27
2019-01-26T22:32:14.258Z,34.00
2019-01-26T22:34:45.735Z,16.63
2019-01-26T22:37:17.310Z,14.03
2019-01-26T22:39:49.054Z,20.30
2019-01-26T22:42:20.764Z,14.00
2019-01-26T22:44:52.109Z,16.43
2019-01-26T22:47:23.239Z,13.93
2019-01-26T22:49:54.704Z,25.67
2019-01-26T22:52:25.843Z,11.87
2019-01-26T22:54:57.479Z,24.23
2019-01-26T22:57:28.789Z,17.97
2019-01-26T23:00:00.533Z,22.50
2019-01-26T23:02:32.094Z,15.63
2019-01-26T23:05:14.724Z,23.37
2019-01-26T23:07:57.034Z,19.97
2019-01-26T23:10:36.350Z,15.33
2019-01-26T23:13:24.463Z,23.03
2019-01-26T23:16:13.045Z,17.10
2019-01-26T23:19:03.094Z,21.97
2019-01-26T23:21:44.948Z,29.13
2019-01-26T23:24:29.529Z,20.87
2019-01-26T23:27:28.820Z,33.30
2019-01-26T23:30:09.741Z,43.73
2019-01-26T23:32:41.555Z,31.73
2019-01-26T23:35:13.324Z,28.93
2019-01-26T23:37:45.364Z,28.90
2019-01-26T23:40:16.634Z,20.20
2019-01-26T23:42:48.393Z,17.20
2019-01-26T23:45:19.799Z,36.53
2019-01-26T23:47:51.559Z,35.10
2019-01-26T23:50:22.848Z,28.30
2019-01-26T23:52:54.454Z,27.53
2019-01-26T23:55:25.749Z,45.90
2019-01-26T23:57:57.318Z,32.07
